Terminal Aerodrome Forecast
Issued by NWS

Home | Current Version | Previous Version | Text Only | Print | Product List | Glossary On
Versions: 1 2 3 4 5 6 7 8 9 10 11 12 13 14 15 16 17 18 19 20 21 22 23 24 25
000
FTUS42 KMFL 161459 AAA
TAFMIA
TAF AMD
KMIA 161459Z 1615/1712 35008KT P6SM BKN025
     FM161700 04008KT P6SM SCT025 BKN050
     FM170000 08003KT P6SM VCSH BKN035=

USA.gov is the U.S. government's official web portal to all federal, state and local government web resources and services.